createdAt,value
2022-09-16T00:00:51.717Z,2.42
2022-09-16T00:03:18.822Z,3.28
2022-09-16T00:05:47.765Z,2.08
2022-09-16T00:08:15.585Z,2.03
2022-09-16T00:10:43.616Z,2.00
2022-09-16T00:13:11.431Z,1.67
2022-09-16T00:15:41.536Z,2.10
2022-09-16T00:18:07.896Z,1.70
2022-09-16T00:20:34.406Z,2.00
2022-09-16T00:23:00.857Z,2.60
2022-09-16T00:25:27.397Z,2.00
2022-09-16T00:27:53.890Z,1.77
2022-09-16T00:30:21.058Z,1.95
2022-09-16T00:32:47.424Z,2.03
2022-09-16T00:35:13.908Z,2.08
2022-09-16T00:37:40.335Z,1.65
2022-09-16T00:40:07.090Z,1.58
2022-09-16T00:42:38.939Z,2.17
2022-09-16T00:45:16.239Z,2.00
2022-09-16T00:47:54.004Z,1.80
2022-09-16T00:50:28.375Z,2.15
2022-09-16T00:52:56.550Z,2.33
2022-09-16T00:55:28.189Z,2.17
2022-09-16T00:57:59.604Z,1.88
2022-09-16T01:00:27.163Z,2.25
2022-09-16T01:02:53.664Z,2.40
2022-09-16T01:05:23.469Z,2.47
2022-09-16T01:07:51.919Z,2.15
2022-09-16T01:10:22.501Z,2.28
2022-09-16T01:12:54.921Z,1.80
2022-09-16T01:15:31.454Z,2.33
2022-09-16T01:18:13.214Z,2.28
2022-09-16T01:20:49.707Z,1.88
2022-09-16T01:23:51.557Z,2.22
2022-09-16T01:26:53.011Z,2.42
2022-09-16T01:29:56.841Z,1.60
2022-09-16T01:32:34.727Z,2.08
2022-09-16T01:35:10.274Z,1.42
2022-09-16T01:38:02.438Z,2.17
2022-09-16T01:40:41.529Z,1.92
2022-09-16T01:43:40.218Z,1.63
2022-09-16T01:46:16.707Z,2.00
2022-09-16T01:48:57.037Z,2.15
2022-09-16T01:51:32.038Z,1.63
2022-09-16T01:54:11.881Z,2.00
2022-09-16T01:56:53.967Z,2.28
2022-09-16T01:59:42.468Z,2.40
2022-09-16T02:02:19.655Z,2.38
2022-09-16T02:04:51.414Z,2.38
2022-09-16T02:07:21.600Z,2.53
2022-09-16T02:10:08.713Z,2.92
2022-09-16T02:12:39.277Z,2.03
2022-09-16T02:15:11.348Z,3.08
2022-09-16T02:17:47.555Z,2.20
2022-09-16T02:20:19.739Z,2.50
2022-09-16T02:22:54.817Z,2.55
2022-09-16T02:25:22.986Z,2.50
2022-09-16T02:27:52.093Z,2.72
2022-09-16T02:30:22.023Z,2.63
2022-09-16T02:32:58.585Z,2.70
2022-09-16T02:35:27.026Z,1.98
2022-09-16T02:37:59.770Z,2.60
2022-09-16T02:40:35.913Z,2.40
2022-09-16T02:43:03.068Z,2.60
2022-09-16T02:45:48.551Z,2.83
2022-09-16T02:48:31.657Z,2.55
2022-09-16T02:51:10.075Z,2.58
2022-09-16T02:53:58.333Z,1.98
2022-09-16T02:56:31.245Z,2.30
2022-09-16T02:58:58.151Z,2.20
2022-09-16T03:01:25.986Z,2.38
2022-09-16T03:03:55.851Z,2.20
2022-09-16T03:06:25.535Z,2.30
2022-09-16T03:08:56.196Z,2.42
2022-09-16T03:11:40.114Z,2.47
2022-09-16T03:14:18.741Z,2.08
2022-09-16T03:16:55.135Z,1.77
2022-09-16T03:19:32.973Z,2.22
2022-09-16T03:22:05.371Z,2.35
2022-09-16T03:24:54.570Z,2.40
2022-09-16T03:27:31.802Z,2.42
2022-09-16T03:30:08.829Z,2.33
2022-09-16T03:32:41.303Z,2.30
2022-09-16T03:35:25.767Z,2.30
2022-09-16T03:37:58.302Z,2.30
2022-09-16T03:40:26.743Z,2.95
2022-09-16T03:42:53.203Z,2.50
2022-09-16T03:45:22.705Z,2.35
2022-09-16T03:47:51.762Z,2.50
2022-09-16T03:50:20.088Z,2.40
2022-09-16T03:52:47.452Z,2.55
2022-09-16T03:55:13.923Z,3.30
2022-09-16T03:57:40.311Z,2.45
2022-09-16T04:00:08.467Z,2.58
2022-09-16T04:02:40.549Z,2.90
2022-09-16T04:05:08.811Z,2.67
2022-09-16T04:07:35.925Z,2.35
2022-09-16T04:10:03.154Z,2.92
2022-09-16T04:12:29.700Z,2.65
2022-09-16T04:14:56.251Z,2.38
2022-09-16T04:17:23.221Z,2.10
2022-09-16T04:19:51.147Z,2.47
2022-09-16T04:22:17.509Z,2.38
2022-09-16T04:24:43.927Z,2.80
2022-09-16T04:27:10.299Z,2.50
2022-09-16T04:29:36.892Z,2.40
2022-09-16T04:32:03.493Z,2.45
2022-09-16T04:34:30.137Z,2.40
2022-09-16T04:36:56.531Z,2.40
2022-09-16T04:39:23.045Z,2.50
2022-09-16T04:41:49.411Z,2.63
2022-09-16T04:44:16.022Z,2.70
2022-09-16T04:46:42.474Z,2.50
2022-09-16T04:49:09.072Z,2.50
2022-09-16T04:51:35.441Z,3.75
2022-09-16T04:54:01.924Z,2.35
2022-09-16T04:56:31.566Z,2.45
2022-09-16T04:59:03.532Z,2.28
2022-09-16T05:01:32.514Z,2.53
2022-09-16T05:04:02.371Z,2.35
2022-09-16T05:06:35.334Z,2.20
2022-09-16T05:09:02.756Z,2.45
2022-09-16T05:11:31.986Z,2.65
2022-09-16T05:13:59.524Z,2.05
2022-09-16T05:16:25.928Z,2.25
2022-09-16T05:18:55.585Z,2.30
2022-09-16T05:21:24.339Z,2.08
2022-09-16T05:23:52.513Z,2.42
2022-09-16T05:26:24.882Z,2.40
2022-09-16T05:28:52.472Z,2.17
2022-09-16T05:31:24.414Z,2.00
2022-09-16T05:34:02.143Z,2.47
2022-09-16T05:36:31.163Z,2.25
2022-09-16T05:39:22.265Z,2.63
2022-09-16T05:41:45.277Z,2.05
2022-09-16T05:44:12.149Z,2.65
2022-09-16T05:46:40.633Z,2.08
2022-09-16T05:49:07.969Z,2.20
2022-09-16T05:51:34.512Z,2.05
2022-09-16T05:54:00.908Z,2.63
2022-09-16T05:56:30.033Z,2.42
2022-09-16T05:58:59.535Z,2.55
2022-09-16T06:01:34.636Z,2.25
2022-09-16T06:04:03.172Z,2.95
2022-09-16T06:06:34.028Z,2.10
2022-09-16T06:09:08.036Z,2.22
2022-09-16T06:11:38.334Z,1.88
2022-09-16T06:14:06.021Z,2.05
2022-09-16T06:16:33.067Z,2.08
2022-09-16T06:19:01.705Z,2.88
2022-09-16T06:21:29.106Z,2.45
2022-09-16T06:23:56.671Z,2.35
2022-09-16T06:26:26.074Z,2.70
2022-09-16T06:28:53.548Z,2.20
2022-09-16T06:31:23.435Z,2.42
2022-09-16T06:33:50.880Z,1.83
2022-09-16T06:36:23.590Z,2.33
2022-09-16T06:38:51.229Z,2.03
2022-09-16T06:41:19.740Z,2.47
2022-09-16T06:43:47.059Z,2.35
2022-09-16T06:46:19.866Z,2.60
2022-09-16T06:48:50.111Z,2.00
2022-09-16T06:51:22.832Z,2.20
2022-09-16T06:53:50.206Z,2.40
2022-09-16T06:56:20.498Z,2.13
2022-09-16T06:58:49.207Z,1.70
2022-09-16T07:01:28.086Z,1.90
2022-09-16T07:03:56.638Z,1.98
2022-09-16T07:06:38.149Z,1.92
2022-09-16T07:09:11.279Z,2.17
2022-09-16T07:11:37.758Z,1.80
2022-09-16T07:14:04.939Z,1.73
2022-09-16T07:16:31.460Z,1.50
2022-09-16T07:19:01.167Z,3.03
2022-09-16T07:21:30.102Z,2.00
2022-09-16T07:24:02.509Z,1.70
2022-09-16T07:26:31.197Z,1.60
2022-09-16T07:29:00.706Z,1.75
2022-09-16T07:31:29.428Z,1.50
2022-09-16T07:34:02.847Z,1.95
2022-09-16T07:36:33.653Z,1.55
2022-09-16T07:39:00.572Z,2.10
2022-09-16T07:41:29.797Z,1.90
2022-09-16T07:43:59.061Z,1.50
2022-09-16T07:46:27.761Z,1.92
2022-09-16T07:48:55.145Z,1.73
2022-09-16T07:51:24.066Z,2.13
2022-09-16T07:53:59.458Z,1.90
2022-09-16T07:56:28.954Z,1.55
2022-09-16T07:58:56.751Z,1.80
2022-09-16T08:01:24.060Z,1.67
2022-09-16T08:03:51.140Z,2.25
2022-09-16T08:06:20.755Z,2.08
2022-09-16T08:08:48.192Z,1.70
2022-09-16T08:11:15.297Z,1.75
2022-09-16T08:13:43.112Z,1.92
2022-09-16T08:16:15.057Z,1.48
2022-09-16T08:18:42.604Z,2.35
2022-09-16T08:21:23.538Z,1.85
2022-09-16T08:23:50.552Z,2.20
2022-09-16T08:26:18.119Z,1.77
2022-09-16T08:29:07.352Z,1.90
2022-09-16T08:31:33.249Z,2.20
2022-09-16T08:33:59.894Z,1.80
2022-09-16T08:36:26.412Z,1.45
2022-09-16T08:38:56.133Z,2.53
2022-09-16T08:41:44.216Z,1.88
2022-09-16T08:44:35.347Z,1.60
2022-09-16T08:47:06.320Z,1.80
2022-09-16T08:49:35.545Z,1.60
2022-09-16T08:52:10.639Z,1.77
2022-09-16T08:54:47.866Z,1.52
2022-09-16T08:57:21.409Z,1.98
2022-09-16T08:59:59.513Z,2.00
2022-09-16T09:05:43.390Z,2.08
2022-09-16T09:08:19.326Z,2.08
2022-09-16T09:10:52.158Z,2.03
2022-09-16T09:13:22.198Z,1.60
2022-09-16T09:16:00.010Z,1.70
2022-09-16T09:19:03.120Z,1.60
2022-09-16T09:21:55.499Z,2.08
2022-09-16T09:24:28.081Z,2.28
2022-09-16T09:27:01.250Z,2.50
2022-09-16T09:30:00.872Z,2.55
2022-09-16T09:32:38.237Z,1.77
2022-09-16T09:35:49.723Z,1.75
2022-09-16T09:38:37.539Z,1.70
2022-09-16T09:41:32.684Z,1.58
2022-09-16T09:44:26.145Z,1.92
2022-09-16T09:46:58.004Z,1.75
2022-09-16T09:49:51.173Z,2.22
2022-09-16T09:52:23.289Z,2.00
2022-09-16T09:54:51.533Z,2.15
2022-09-16T09:57:31.612Z,1.80
2022-09-16T10:00:11.626Z,1.88
2022-09-16T10:02:46.238Z,1.50
2022-09-16T10:05:23.715Z,2.40
2022-09-16T10:07:57.329Z,1.70
2022-09-16T10:10:26.672Z,1.75
2022-09-16T10:12:54.305Z,2.20
2022-09-16T10:15:38.531Z,2.10
2022-09-16T10:18:25.105Z,1.92
2022-09-16T10:21:11.465Z,1.88
2022-09-16T10:23:39.158Z,1.70
2022-09-16T10:26:27.577Z,1.83
2022-09-16T10:29:03.442Z,1.65
2022-09-16T10:31:35.636Z,1.70
2022-09-16T10:34:04.515Z,1.90
2022-09-16T10:36:34.609Z,2.05
2022-09-16T10:39:05.263Z,1.48
2022-09-16T10:41:42.326Z,1.40
2022-09-16T10:44:28.285Z,1.50
2022-09-16T10:47:01.409Z,1.50
2022-09-16T10:49:38.760Z,1.45
2022-09-16T10:52:17.516Z,1.42
2022-09-16T10:54:44.891Z,1.42
2022-09-16T10:57:31.177Z,1.27
2022-09-16T11:00:14.536Z,1.42
2022-09-16T11:03:28.269Z,1.38
2022-09-16T11:06:06.933Z,1.23
2022-09-16T11:08:51.668Z,1.40
2022-09-16T11:11:37.641Z,1.30
2022-09-16T11:14:25.665Z,1.35
2022-09-16T11:17:15.288Z,1.35
2022-09-16T11:20:04.769Z,1.20
2022-09-16T11:22:54.096Z,1.15
2022-09-16T11:25:41.509Z,1.17
2022-09-16T11:28:32.887Z,1.55
2022-09-16T11:31:34.938Z,1.20
2022-09-16T11:34:16.592Z,1.52
2022-09-16T11:36:49.085Z,1.45
2022-09-16T11:39:49.529Z,1.60
2022-09-16T11:42:34.369Z,1.55
2022-09-16T11:45:19.137Z,1.92
2022-09-16T11:47:56.874Z,1.98
2022-09-16T11:50:49.421Z,1.52
2022-09-16T11:53:35.006Z,1.88
2022-09-16T11:56:10.821Z,1.77
2022-09-16T11:58:49.018Z,1.80
2022-09-16T12:01:46.710Z,1.58
2022-09-16T12:04:38.399Z,1.33
2022-09-16T12:07:17.963Z,1.60
2022-09-16T12:09:57.583Z,1.20
2022-09-16T12:12:29.540Z,1.73
2022-09-16T12:15:05.967Z,1.65
2022-09-16T12:17:37.078Z,1.30
2022-09-16T12:20:14.465Z,1.50
2022-09-16T12:23:30.219Z,1.58
2022-09-16T12:26:07.032Z,1.45
2022-09-16T12:28:55.354Z,1.80
2022-09-16T12:31:36.491Z,1.65
2022-09-16T12:34:27.670Z,2.55
2022-09-16T12:37:22.640Z,1.45
2022-09-16T12:39:50.308Z,1.48
2022-09-16T12:42:47.569Z,1.30
2022-09-16T12:45:51.095Z,1.38
2022-09-16T12:48:38.900Z,2.15
2022-09-16T12:51:30.354Z,1.27
2022-09-16T12:54:20.441Z,1.23
2022-09-16T12:57:15.852Z,1.10
2022-09-16T12:59:52.403Z,1.45
2022-09-16T13:02:22.660Z,1.63
2022-09-16T13:04:53.173Z,1.52
2022-09-16T13:07:27.364Z,1.00
2022-09-16T13:10:01.670Z,1.35
2022-09-16T13:12:40.977Z,1.00
2022-09-16T13:15:27.162Z,1.02
2022-09-16T13:17:54.295Z,1.30
2022-09-16T13:20:33.499Z,1.30
2022-09-16T13:23:07.343Z,1.30
2022-09-16T13:25:44.799Z,1.10
2022-09-16T13:28:39.123Z,1.30
2022-09-16T13:31:11.679Z,1.88
2022-09-16T13:33:45.278Z,1.27
2022-09-16T13:36:31.876Z,2.03
2022-09-16T13:39:01.886Z,1.35
2022-09-16T13:41:48.702Z,1.55
2022-09-16T13:44:33.509Z,1.52
2022-09-16T13:47:09.222Z,1.67
2022-09-16T13:49:47.568Z,1.63
2022-09-16T13:52:21.131Z,2.00
2022-09-16T13:55:10.101Z,1.70
2022-09-16T13:58:10.831Z,1.58
2022-09-16T14:00:49.671Z,1.48
2022-09-16T14:03:29.218Z,1.52
2022-09-16T14:05:58.635Z,1.50
2022-09-16T14:08:53.207Z,1.63
2022-09-16T14:11:31.670Z,1.95
2022-09-16T14:14:06.239Z,2.38
2022-09-16T14:16:34.794Z,1.67
2022-09-16T14:19:19.942Z,2.30
2022-09-16T14:21:46.797Z,2.13
2022-09-16T14:24:19.452Z,2.17
2022-09-16T14:26:53.463Z,1.55
2022-09-16T14:29:20.775Z,1.95
2022-09-16T14:31:48.240Z,1.90
2022-09-16T14:34:36.266Z,1.88
2022-09-16T14:37:05.410Z,1.67
2022-09-16T14:39:32.720Z,1.92
2022-09-16T14:42:07.283Z,2.00
2022-09-16T14:44:45.463Z,1.98
2022-09-16T14:47:29.458Z,2.13
2022-09-16T14:50:07.701Z,2.05
2022-09-16T14:52:35.797Z,2.10
2022-09-16T14:55:02.235Z,2.83
2022-09-16T14:57:30.716Z,2.67
2022-09-16T14:59:59.238Z,2.20
2022-09-16T15:02:34.248Z,2.10
2022-09-16T15:05:33.168Z,2.72
2022-09-16T15:08:14.208Z,2.88
2022-09-16T15:12:46.584Z,2.40
2022-09-16T15:13:36.511Z,2.45
2022-09-16T15:16:16.110Z,2.70
2022-09-16T15:18:52.485Z,2.47
2022-09-16T15:21:26.476Z,1.98
2022-09-16T15:23:56.589Z,2.20
2022-09-16T15:26:26.413Z,2.47
2022-09-16T15:31:46.600Z,2.00
2022-09-16T15:34:19.125Z,1.95
2022-09-16T15:36:47.522Z,1.75
2022-09-16T15:39:31.835Z,2.00
2022-09-16T15:42:18.077Z,2.42
2022-09-16T15:44:48.971Z,2.88
2022-09-16T15:47:33.991Z,2.97
2022-09-16T15:50:05.305Z,2.85
2022-09-16T15:52:34.899Z,3.83
2022-09-16T15:55:06.027Z,3.20
2022-09-16T15:57:38.148Z,3.42
2022-09-16T16:00:15.811Z,3.00
2022-09-16T16:02:50.489Z,2.85
2022-09-16T16:05:21.339Z,2.78
2022-09-16T16:07:51.605Z,2.80
2022-09-16T16:10:32.907Z,2.92
2022-09-16T16:13:01.187Z,2.03
2022-09-16T16:15:36.451Z,2.97
2022-09-16T16:18:05.670Z,3.00
2022-09-16T16:20:34.108Z,2.78
2022-09-16T16:23:01.629Z,2.80
2022-09-16T16:25:28.885Z,3.22
2022-09-16T16:27:55.517Z,3.60
2022-09-16T16:30:22.011Z,3.10
2022-09-16T16:32:48.810Z,2.90
2022-09-16T16:35:15.328Z,3.05
2022-09-16T16:37:46.457Z,3.20
2022-09-16T16:40:15.026Z,3.85
2022-09-16T16:42:43.301Z,4.00
2022-09-16T16:45:12.072Z,5.93
2022-09-16T16:47:38.395Z,5.20
2022-09-16T16:50:05.128Z,4.47
2022-09-16T16:52:31.476Z,5.13
2022-09-16T16:54:57.958Z,5.03
2022-09-16T16:57:24.390Z,4.35
2022-09-16T16:59:51.866Z,5.00
2022-09-16T17:02:18.295Z,4.25
2022-09-16T17:04:44.644Z,4.65
2022-09-16T17:07:27.901Z,4.20
2022-09-16T17:09:55.788Z,3.67
2022-09-16T17:12:22.260Z,3.63
2022-09-16T17:14:48.658Z,4.05
2022-09-16T17:17:15.293Z,3.42
2022-09-16T17:19:41.651Z,3.83
2022-09-16T17:22:08.095Z,3.67
2022-09-16T17:24:34.814Z,3.90
2022-09-16T17:27:01.920Z,4.10
2022-09-16T17:29:28.348Z,4.40
2022-09-16T17:31:57.017Z,3.80
2022-09-16T17:34:23.717Z,4.10
2022-09-16T17:36:50.192Z,4.43
2022-09-16T17:39:18.813Z,3.55
2022-09-16T17:41:47.442Z,3.97
2022-09-16T17:44:14.486Z,4.57
2022-09-16T17:46:42.662Z,5.65
2022-09-16T17:49:23.766Z,4.50
2022-09-16T17:51:51.824Z,5.15
2022-09-16T17:54:18.545Z,4.13
2022-09-16T17:56:45.228Z,4.13
2022-09-16T17:59:13.168Z,3.90
2022-09-16T18:01:39.913Z,4.10
2022-09-16T18:04:07.019Z,4.22
2022-09-16T18:06:39.910Z,3.35
2022-09-16T18:09:09.453Z,4.80
2022-09-16T18:11:36.986Z,3.60
2022-09-16T18:14:06.308Z,4.30
2022-09-16T18:16:32.895Z,4.20
2022-09-16T18:19:01.439Z,4.10
2022-09-16T18:21:30.121Z,4.18
2022-09-16T18:24:02.325Z,4.05
2022-09-16T18:26:29.651Z,4.55
2022-09-16T18:29:16.170Z,4.10
2022-09-16T18:31:45.257Z,3.40
2022-09-16T18:34:12.714Z,4.20
2022-09-16T18:36:39.736Z,5.50
2022-09-16T18:39:10.028Z,3.65
2022-09-16T18:41:38.564Z,3.80
2022-09-16T18:44:10.351Z,4.05
2022-09-16T18:46:37.802Z,4.07
2022-09-16T18:49:05.838Z,4.03
2022-09-16T18:51:36.894Z,3.72
2022-09-16T18:54:10.576Z,3.70
2022-09-16T18:56:38.816Z,5.07
2022-09-16T18:59:26.139Z,4.30
2022-09-16T19:01:54.699Z,3.75
2022-09-16T19:04:23.598Z,4.20
2022-09-16T19:06:53.143Z,4.05
2022-09-16T19:09:21.983Z,3.63
2022-09-16T19:11:49.458Z,3.95
2022-09-16T19:14:16.306Z,3.58
2022-09-16T19:16:44.580Z,4.43
2022-09-16T19:19:13.848Z,3.85
2022-09-16T19:21:41.972Z,4.55
2022-09-16T19:24:13.921Z,4.53
2022-09-16T19:26:42.171Z,4.82
2022-09-16T19:29:09.763Z,3.38
2022-09-16T19:31:39.214Z,3.30
2022-09-16T19:34:06.700Z,4.20
2022-09-16T19:36:34.612Z,4.13
2022-09-16T19:39:01.702Z,4.25
2022-09-16T19:41:34.755Z,4.18
2022-09-16T19:44:04.392Z,3.78
2022-09-16T19:46:34.649Z,5.13
2022-09-16T19:49:01.389Z,4.13
2022-09-16T19:51:28.312Z,4.10
2022-09-16T19:53:55.062Z,4.68
2022-09-16T19:56:27.009Z,4.07
2022-09-16T19:58:54.525Z,3.72
2022-09-16T20:01:27.107Z,4.00
2022-09-16T20:03:54.466Z,3.53
2022-09-16T20:06:41.247Z,4.03
2022-09-16T20:09:12.692Z,3.65
2022-09-16T20:11:41.965Z,3.50
2022-09-16T20:14:14.346Z,3.95
2022-09-16T20:16:40.958Z,2.70
2022-09-16T20:19:12.533Z,3.10
2022-09-16T20:21:39.299Z,3.47
2022-09-16T20:24:07.846Z,3.97
2022-09-16T20:26:35.523Z,3.40
2022-09-16T20:29:02.662Z,3.45
2022-09-16T20:31:32.499Z,3.03
2022-09-16T20:33:59.730Z,3.90
2022-09-16T20:36:29.752Z,3.20
2022-09-16T20:38:56.851Z,2.55
2022-09-16T20:41:24.979Z,4.28
2022-09-16T20:43:52.749Z,3.45
2022-09-16T20:46:22.147Z,3.67
2022-09-16T20:48:49.106Z,3.22
2022-09-16T20:51:18.272Z,3.40
2022-09-16T20:53:53.943Z,3.20
2022-09-16T20:56:21.165Z,3.97
2022-09-16T20:58:48.148Z,4.43
2022-09-16T21:01:19.137Z,4.10
2022-09-16T21:03:49.886Z,3.90
2022-09-16T21:06:16.248Z,4.18
2022-09-16T21:08:43.720Z,4.30
2022-09-16T21:11:13.177Z,4.03
2022-09-16T21:13:41.316Z,3.50
2022-09-16T21:16:09.529Z,3.88
2022-09-16T21:18:36.002Z,4.03
2022-09-16T21:21:07.939Z,3.00
2022-09-16T21:23:35.110Z,3.75
2022-09-16T21:26:04.154Z,3.38
2022-09-16T21:28:31.689Z,3.53
2022-09-16T21:31:02.329Z,3.30
2022-09-16T21:33:30.739Z,3.40
2022-09-16T21:35:57.092Z,4.10
2022-09-16T21:38:24.562Z,4.38
2022-09-16T21:40:55.974Z,3.72
2022-09-16T21:43:26.404Z,3.85
2022-09-16T21:45:53.801Z,3.40
2022-09-16T21:48:20.898Z,3.60
2022-09-16T21:50:48.388Z,3.42
2022-09-16T21:53:15.285Z,3.42
2022-09-16T21:55:41.963Z,3.00
2022-09-16T21:58:08.869Z,3.70
2022-09-16T22:00:36.506Z,3.35
2022-09-16T22:03:02.938Z,3.58
2022-09-16T22:05:30.373Z,4.15
2022-09-16T22:07:57.048Z,3.15
2022-09-16T22:10:23.460Z,3.17
2022-09-16T22:12:49.898Z,3.30
2022-09-16T22:15:16.746Z,3.17
2022-09-16T22:17:43.442Z,3.92
2022-09-16T22:20:11.620Z,3.83
2022-09-16T22:22:39.117Z,3.60
2022-09-16T22:25:05.639Z,3.45
2022-09-16T22:27:33.008Z,3.20
2022-09-16T22:29:59.542Z,2.70
2022-09-16T22:32:27.009Z,3.85
2022-09-16T22:34:53.527Z,3.65
2022-09-16T22:37:19.959Z,3.80
2022-09-16T22:39:46.332Z,3.35
2022-09-16T22:42:12.836Z,3.70
2022-09-16T22:44:39.179Z,3.90
2022-09-16T22:47:05.808Z,4.15
2022-09-16T22:49:32.137Z,3.53
2022-09-16T22:51:58.586Z,4.03
2022-09-16T22:54:24.971Z,3.38
2022-09-16T22:56:51.470Z,4.10
2022-09-16T22:59:20.081Z,3.83
2022-09-16T23:01:47.248Z,3.75
2022-09-16T23:04:13.715Z,3.88
2022-09-16T23:06:41.170Z,3.80
2022-09-16T23:09:08.784Z,4.10
2022-09-16T23:11:36.033Z,3.83
2022-09-16T23:14:04.034Z,4.50
2022-09-16T23:16:35.784Z,4.30
2022-09-16T23:19:05.332Z,3.78
2022-09-16T23:21:32.417Z,4.78
2022-09-16T23:24:01.259Z,3.75
2022-09-16T23:26:33.457Z,3.75
2022-09-16T23:29:01.904Z,3.50
2022-09-16T23:31:31.077Z,3.75
2022-09-16T23:33:58.144Z,5.13
2022-09-16T23:36:26.029Z,4.35
2022-09-16T23:38:53.820Z,3.53
2022-09-16T23:41:22.992Z,4.03
2022-09-16T23:43:50.169Z,4.82
2022-09-16T23:46:19.845Z,4.13
2022-09-16T23:48:47.225Z,3.78
2022-09-16T23:51:13.971Z,4.47
2022-09-16T23:53:42.208Z,4.47
2022-09-16T23:56:11.515Z,4.15
2022-09-16T23:58:38.464Z,4.82
